createdAt,value
2023-08-28T00:02:22.265Z,10.36
2023-08-28T00:04:50.269Z,10.38
2023-08-28T00:07:19.619Z,10.36
2023-08-28T00:09:47.773Z,10.35
2023-08-28T00:12:15.929Z,10.38
2023-08-28T00:14:43.915Z,10.41
2023-08-28T00:17:11.919Z,10.38
2023-08-28T00:19:39.920Z,10.41
2023-08-28T00:22:07.949Z,10.38
2023-08-28T00:24:37.315Z,10.35
2023-08-28T00:27:05.725Z,10.39
2023-08-28T00:29:33.739Z,10.37
2023-08-28T00:32:01.726Z,10.37
2023-08-28T00:34:29.769Z,10.38
2023-08-28T00:36:57.755Z,10.45
2023-08-28T00:39:25.746Z,10.43
2023-08-28T00:41:55.099Z,10.43
2023-08-28T00:44:23.115Z,10.36
2023-08-28T00:46:51.354Z,10.29
2023-08-28T00:49:19.477Z,10.27
2023-08-28T00:51:47.651Z,10.28
2023-08-28T00:54:16.442Z,10.26
2023-08-28T00:56:44.795Z,10.24
2023-08-28T00:59:16.230Z,10.30
2023-08-28T01:01:44.484Z,10.35
2023-08-28T01:04:12.566Z,10.36
2023-08-28T01:06:50.087Z,10.36
2023-08-28T01:09:26.805Z,10.42
2023-08-28T01:12:02.766Z,10.44
2023-08-28T01:14:32.132Z,10.44
2023-08-28T01:17:05.100Z,10.43
2023-08-28T01:19:35.808Z,10.51
2023-08-28T01:22:13.191Z,10.57
2023-08-28T01:24:46.217Z,10.57
2023-08-28T01:27:17.422Z,10.62
2023-08-28T01:29:45.876Z,10.67
2023-08-28T01:32:13.875Z,10.65
2023-08-28T01:34:42.307Z,10.73
2023-08-28T01:37:17.862Z,10.77
2023-08-28T01:39:50.070Z,10.73
2023-08-28T01:42:21.177Z,10.76
2023-08-28T01:44:56.022Z,10.81
2023-08-28T01:47:25.581Z,10.75
2023-08-28T01:49:54.688Z,10.79
2023-08-28T01:52:22.771Z,10.82
2023-08-28T01:54:50.803Z,10.89
2023-08-28T01:57:20.228Z,10.94
2023-08-28T01:59:48.194Z,11.03
2023-08-28T02:02:16.234Z,10.98
2023-08-28T02:04:44.422Z,10.86
2023-08-28T02:07:12.400Z,10.68
2023-08-28T02:09:40.405Z,10.56
2023-08-28T02:12:08.901Z,10.58
2023-08-28T02:14:38.298Z,10.55
2023-08-28T02:17:06.607Z,10.52
2023-08-28T02:19:34.650Z,10.49
2023-08-28T02:22:02.646Z,10.48
2023-08-28T02:24:30.682Z,10.47
2023-08-28T02:26:59.601Z,10.44
2023-08-28T02:29:27.622Z,10.48
2023-08-28T02:31:56.990Z,10.46
2023-08-28T02:34:24.984Z,10.46
2023-08-28T02:36:52.953Z,10.43
2023-08-28T02:39:20.950Z,10.44
2023-08-28T02:41:48.969Z,10.42
2023-08-28T02:44:16.946Z,10.37
2023-08-28T02:46:44.965Z,10.33
2023-08-28T02:49:14.359Z,10.22
2023-08-28T02:51:42.391Z,10.28
2023-08-28T02:54:10.856Z,10.26
2023-08-28T02:56:40.497Z,10.26
2023-08-28T02:59:09.260Z,10.19
2023-08-28T03:01:37.437Z,10.13
2023-08-28T03:04:06.637Z,10.04
2023-08-28T03:06:37.778Z,10.08
2023-08-28T03:09:06.578Z,10.08
2023-08-28T03:11:34.576Z,9.99
2023-08-28T03:14:02.656Z,9.94
2023-08-28T03:16:30.836Z,9.93
2023-08-28T03:18:58.909Z,9.95
2023-08-28T03:21:26.941Z,9.91
2023-08-28T03:23:56.352Z,9.84
2023-08-28T03:26:26.865Z,9.82
2023-08-28T03:28:56.101Z,9.87
2023-08-28T03:31:24.688Z,9.94
2023-08-28T03:33:52.474Z,9.90
2023-08-28T03:36:20.468Z,9.86
2023-08-28T03:38:48.496Z,9.86
2023-08-28T03:41:18.050Z,9.81
2023-08-28T03:43:46.062Z,9.87
2023-08-28T03:46:14.057Z,9.78
2023-08-28T03:48:42.141Z,9.78
2023-08-28T03:51:10.112Z,9.80
2023-08-28T03:53:38.288Z,9.92
2023-08-28T03:56:06.337Z,9.94
2023-08-28T03:58:35.718Z,9.93
2023-08-28T04:01:04.619Z,9.99
2023-08-28T04:03:32.706Z,10.01
2023-08-28T04:06:01.031Z,10.07
2023-08-28T04:08:29.169Z,10.13
2023-08-28T04:10:59.544Z,10.09
2023-08-28T04:13:28.020Z,10.04
2023-08-28T04:15:57.619Z,10.01
2023-08-28T04:18:25.614Z,10.13
2023-08-28T04:20:53.582Z,10.17
2023-08-28T04:23:23.410Z,10.07
2023-08-28T04:25:57.135Z,9.95
2023-08-28T04:28:27.584Z,9.94
2023-08-28T04:30:56.087Z,9.93
2023-08-28T04:33:27.184Z,9.97
2023-08-28T04:35:55.221Z,10.09
2023-08-28T04:38:24.946Z,10.18
2023-08-28T04:40:52.991Z,10.23
2023-08-28T04:43:24.323Z,10.21
2023-08-28T04:45:55.739Z,10.18
2023-08-28T04:48:25.415Z,10.30
2023-08-28T04:50:53.442Z,10.38
2023-08-28T04:53:21.652Z,10.47
2023-08-28T04:55:57.608Z,10.55
2023-08-28T04:58:28.878Z,10.56
2023-08-28T05:01:05.690Z,10.60
2023-08-28T05:03:37.878Z,10.49
2023-08-28T05:06:06.499Z,10.46
2023-08-28T05:08:34.446Z,10.34
2023-08-28T05:11:09.892Z,10.31
2023-08-28T05:13:38.072Z,10.32
2023-08-28T05:16:06.362Z,10.39
2023-08-28T05:18:42.038Z,10.32
2023-08-28T05:21:12.080Z,10.27
2023-08-28T05:23:40.399Z,10.18
2023-08-28T05:26:10.493Z,10.13
2023-08-28T05:28:40.010Z,10.20
2023-08-28T05:31:08.626Z,10.16
2023-08-28T05:33:38.069Z,10.14
2023-08-28T05:36:09.561Z,10.18
2023-08-28T05:38:37.645Z,10.13
2023-08-28T05:41:05.819Z,10.21
2023-08-28T05:43:34.214Z,10.18
2023-08-28T05:46:02.303Z,10.20
2023-08-28T05:48:30.473Z,10.28
2023-08-28T05:51:02.957Z,10.33
2023-08-28T05:53:31.047Z,10.32
2023-08-28T05:55:59.245Z,10.30
2023-08-28T05:58:27.286Z,10.31
2023-08-28T06:00:55.710Z,10.34
2023-08-28T06:03:23.776Z,10.37
2023-08-28T06:05:54.787Z,10.41
2023-08-28T06:08:24.729Z,10.47
2023-08-28T06:10:53.061Z,10.51
2023-08-28T06:13:28.420Z,10.53
2023-08-28T06:15:56.668Z,10.47
2023-08-28T06:18:26.745Z,10.42
2023-08-28T06:20:55.016Z,10.48
2023-08-28T06:23:24.420Z,10.56
2023-08-28T06:25:52.462Z,10.65
2023-08-28T06:28:20.633Z,10.72
2023-08-28T06:30:48.717Z,10.79
2023-08-28T06:33:16.829Z,10.92
2023-08-28T06:35:44.974Z,10.97
2023-08-28T06:38:13.547Z,10.89
2023-08-28T06:40:42.734Z,11.02
2023-08-28T06:43:10.744Z,11.11
2023-08-28T06:45:49.857Z,11.22
2023-08-28T06:48:17.938Z,11.22
2023-08-28T06:50:45.922Z,11.25
2023-08-28T06:53:13.897Z,11.35
2023-08-28T06:55:43.284Z,11.41
2023-08-28T06:58:11.276Z,11.49
2023-08-28T07:00:39.365Z,11.55
2023-08-28T07:03:07.863Z,11.55
2023-08-28T07:05:36.172Z,11.65
2023-08-28T07:08:04.787Z,11.71
2023-08-28T07:10:32.791Z,11.74
2023-08-28T07:13:02.418Z,11.71
2023-08-28T07:16:00.177Z,11.75
2023-08-28T07:18:28.999Z,11.73
2023-08-28T07:20:57.612Z,11.78
2023-08-28T07:23:26.331Z,11.84
2023-08-28T07:25:54.419Z,11.87
2023-08-28T07:28:24.516Z,11.96
2023-08-28T07:30:52.710Z,11.98
2023-08-28T07:33:20.817Z,12.01
2023-08-28T07:35:49.036Z,12.04
2023-08-28T07:38:17.254Z,12.12
2023-08-28T07:40:45.393Z,12.17
2023-08-28T07:43:13.431Z,12.27
2023-08-28T07:45:43.159Z,12.39
2023-08-28T07:48:11.315Z,12.51
2023-08-28T07:50:40.796Z,12.58
2023-08-28T07:53:08.899Z,12.66
2023-08-28T07:55:36.981Z,12.85
2023-08-28T07:58:05.766Z,12.89
2023-08-28T08:00:36.339Z,12.95
2023-08-28T08:03:06.829Z,13.04
2023-08-28T08:05:35.101Z,13.06
2023-08-28T08:08:03.146Z,13.07
2023-08-28T08:10:31.269Z,13.03
2023-08-28T08:12:59.353Z,12.99
2023-08-28T08:15:27.351Z,13.02
2023-08-28T08:17:55.381Z,13.12
2023-08-28T08:20:25.082Z,13.22
2023-08-28T08:22:55.026Z,13.26
2023-08-28T08:25:23.842Z,13.26
2023-08-28T08:27:52.092Z,13.21
2023-08-28T08:30:20.461Z,13.26
2023-08-28T08:32:49.094Z,13.27
2023-08-28T08:35:17.321Z,13.26
2023-08-28T08:37:53.862Z,13.30
2023-08-28T08:40:27.190Z,13.36
2023-08-28T08:42:55.865Z,13.37
2023-08-28T08:45:26.443Z,13.41
2023-08-28T08:47:56.733Z,13.49
2023-08-28T08:50:26.633Z,13.53
2023-08-28T08:52:59.596Z,13.52
2023-08-28T08:55:38.168Z,13.60
2023-08-28T08:58:11.301Z,13.70
2023-08-28T09:00:40.825Z,13.81
2023-08-28T09:03:10.191Z,13.85
2023-08-28T09:05:38.816Z,13.86
2023-08-28T09:08:08.363Z,13.89
2023-08-28T09:10:36.767Z,13.88
2023-08-28T09:13:05.611Z,13.95
2023-08-28T09:15:34.099Z,13.99
2023-08-28T09:18:04.041Z,13.98
2023-08-28T09:20:32.194Z,13.99
2023-08-28T09:23:00.861Z,13.99
2023-08-28T09:25:30.497Z,13.98
2023-08-28T09:28:00.760Z,14.09
2023-08-28T09:30:30.684Z,14.13
2023-08-28T09:33:00.942Z,14.20
2023-08-28T09:35:30.191Z,14.34
2023-08-28T09:37:59.120Z,14.42
2023-08-28T09:40:32.885Z,14.44
2023-08-28T09:43:02.020Z,14.55
2023-08-28T09:45:43.959Z,14.61
2023-08-28T09:48:15.031Z,14.58
2023-08-28T09:50:44.664Z,14.65
2023-08-28T09:53:14.947Z,14.69
2023-08-28T09:55:48.627Z,14.75
2023-08-28T09:58:17.708Z,14.86
2023-08-28T10:00:46.270Z,14.89
2023-08-28T10:03:16.334Z,14.92
2023-08-28T10:05:46.057Z,15.05
2023-08-28T10:08:18.955Z,15.16
2023-08-28T10:10:49.443Z,15.27
2023-08-28T10:13:19.103Z,15.41
2023-08-28T10:15:52.356Z,15.63
2023-08-28T10:18:27.082Z,15.85
2023-08-28T10:20:57.008Z,16.06
2023-08-28T10:23:26.739Z,16.10
2023-08-28T10:25:58.051Z,16.14
2023-08-28T10:28:28.782Z,16.16
2023-08-28T10:30:58.741Z,16.26
2023-08-28T10:33:27.738Z,16.37
2023-08-28T10:35:57.061Z,16.57
2023-08-28T10:38:25.529Z,16.62
2023-08-28T10:40:57.076Z,16.69
2023-08-28T10:43:28.200Z,16.83
2023-08-28T10:46:02.279Z,17.00
2023-08-28T10:48:31.083Z,17.22
2023-08-28T10:54:11.890Z,17.46
2023-08-28T10:56:42.026Z,17.54
2023-08-28T10:59:26.982Z,17.56
2023-08-28T11:01:56.617Z,17.55
2023-08-28T11:04:25.895Z,17.55
2023-08-28T11:06:53.993Z,17.59
2023-08-28T11:09:35.916Z,17.64
2023-08-28T11:12:43.484Z,17.58
2023-08-28T11:15:12.846Z,17.57
2023-08-28T11:17:40.937Z,17.59
2023-08-28T11:20:12.253Z,17.46
2023-08-28T11:22:41.717Z,17.32
2023-08-28T11:25:11.107Z,17.31
2023-08-28T11:27:49.565Z,17.26
2023-08-28T11:30:22.279Z,17.28
2023-08-28T11:32:54.648Z,17.34
2023-08-28T11:35:23.914Z,17.32
2023-08-28T11:37:53.949Z,17.24
2023-08-28T11:40:23.228Z,17.18
2023-08-28T11:43:08.753Z,17.24
2023-08-28T11:45:37.541Z,17.23
2023-08-28T11:48:06.753Z,17.21
2023-08-28T11:50:36.425Z,17.26
2023-08-28T11:53:04.821Z,17.31
2023-08-28T11:55:34.980Z,17.32
2023-08-28T11:58:08.805Z,17.30
2023-08-28T12:00:45.701Z,17.45
2023-08-28T12:03:19.362Z,17.50
2023-08-28T12:05:47.601Z,17.61
2023-08-28T12:08:16.033Z,17.73
2023-08-28T12:10:45.477Z,17.84
2023-08-28T12:13:21.720Z,17.92
2023-08-28T12:15:49.776Z,17.91
2023-08-28T12:18:17.763Z,18.01
2023-08-28T12:20:45.878Z,18.18
2023-08-28T12:23:19.545Z,18.28
2023-08-28T12:25:47.580Z,18.41
2023-08-28T12:28:19.399Z,18.49
2023-08-28T12:30:54.229Z,18.55
2023-08-28T12:33:25.851Z,18.61
2023-08-28T12:35:59.573Z,18.68
2023-08-28T12:38:45.268Z,18.80
2023-08-28T12:41:13.264Z,18.82
2023-08-28T12:43:46.994Z,18.73
2023-08-28T12:46:16.394Z,18.77
2023-08-28T12:48:45.916Z,18.74
2023-08-28T12:51:13.965Z,18.73
2023-08-28T12:53:42.034Z,18.75
2023-08-28T12:56:10.570Z,18.69
2023-08-28T12:58:38.652Z,18.51
2023-08-28T13:01:16.969Z,18.24
2023-08-28T13:03:45.314Z,18.11
2023-08-28T13:06:13.410Z,18.29
2023-08-28T13:08:41.983Z,18.21
2023-08-28T13:11:12.270Z,18.18
2023-08-28T13:13:40.333Z,18.09
2023-08-28T13:16:08.501Z,18.10
2023-08-28T13:18:38.186Z,17.97
2023-08-28T13:21:07.043Z,18.08
2023-08-28T13:23:35.130Z,18.26
2023-08-28T13:26:03.299Z,18.28
2023-08-28T13:28:31.432Z,18.39
2023-08-28T13:30:59.893Z,18.55
2023-08-28T13:33:28.117Z,18.67
2023-08-28T13:35:57.942Z,18.86
2023-08-28T13:38:25.987Z,19.00
2023-08-28T13:40:54.013Z,19.09
2023-08-28T13:43:22.043Z,19.19
2023-08-28T13:45:52.056Z,19.33
2023-08-28T13:48:20.517Z,19.78
2023-08-28T13:50:56.358Z,20.07
2023-08-28T13:53:27.336Z,20.13
2023-08-28T13:55:56.234Z,19.90
2023-08-28T13:58:24.322Z,19.64
2023-08-28T14:00:59.482Z,19.38
2023-08-28T14:03:29.302Z,19.39
2023-08-28T14:05:58.591Z,19.23
2023-08-28T14:08:30.452Z,19.11
2023-08-28T14:10:58.665Z,19.05
2023-08-28T14:13:26.918Z,18.90
2023-08-28T14:15:54.735Z,18.73
2023-08-28T14:18:22.763Z,18.48
2023-08-28T14:20:54.415Z,18.32
2023-08-28T14:23:22.638Z,18.19
2023-08-28T14:25:52.777Z,18.19
2023-08-28T14:28:23.847Z,18.13
2023-08-28T14:30:51.890Z,18.12
2023-08-28T14:33:22.105Z,18.20
2023-08-28T14:35:50.464Z,18.19
2023-08-28T14:38:18.722Z,18.14
2023-08-28T14:40:53.055Z,18.03
2023-08-28T14:43:21.462Z,18.00
2023-08-28T14:45:49.672Z,17.95
2023-08-28T14:48:17.723Z,17.91
2023-08-28T14:50:45.740Z,17.81
2023-08-28T14:53:14.048Z,17.74
2023-08-28T14:55:42.051Z,17.63
2023-08-28T14:58:11.438Z,17.59
2023-08-28T15:00:39.545Z,17.63
2023-08-28T15:03:07.874Z,17.62
2023-08-28T15:05:37.237Z,17.53
2023-08-28T15:08:16.693Z,17.44
2023-08-28T15:10:46.506Z,17.40
2023-08-28T15:13:17.562Z,17.31
2023-08-28T15:15:47.461Z,17.31
2023-08-28T15:18:15.748Z,17.28
2023-08-28T15:20:43.841Z,17.32
2023-08-28T15:23:11.884Z,17.29
2023-08-28T15:25:40.204Z,17.29
2023-08-28T15:28:09.429Z,17.31
2023-08-28T15:30:39.042Z,17.41
2023-08-28T15:33:08.442Z,17.68
2023-08-28T15:35:36.856Z,17.95
2023-08-28T15:38:05.644Z,18.19
2023-08-28T15:40:35.274Z,18.26
2023-08-28T15:43:03.718Z,18.23
2023-08-28T15:45:32.165Z,18.12
2023-08-28T15:48:04.231Z,17.99
2023-08-28T15:50:34.433Z,18.00
2023-08-28T15:53:02.932Z,17.96
2023-08-28T15:55:31.776Z,17.99
2023-08-28T15:57:59.846Z,17.99
2023-08-28T16:00:30.615Z,17.98
2023-08-28T16:02:58.823Z,18.01
2023-08-28T16:05:29.936Z,17.99
2023-08-28T16:07:58.310Z,17.99
2023-08-28T16:10:26.926Z,17.79
2023-08-28T16:12:55.762Z,17.77
2023-08-28T16:15:23.845Z,17.70
2023-08-28T16:17:51.863Z,17.72
2023-08-28T16:20:20.014Z,17.65
2023-08-28T16:22:49.714Z,17.61
2023-08-28T16:25:18.860Z,17.31
2023-08-28T16:27:46.839Z,17.25
2023-08-28T16:30:15.226Z,17.25
2023-08-28T16:32:43.399Z,17.19
2023-08-28T16:35:11.950Z,17.13
2023-08-28T16:37:39.957Z,17.11
2023-08-28T16:40:10.497Z,17.03
2023-08-28T16:42:38.487Z,16.96
2023-08-28T16:45:07.416Z,16.95
2023-08-28T16:47:35.626Z,16.97
2023-08-28T16:50:04.361Z,16.98
2023-08-28T16:52:32.526Z,17.03
2023-08-28T16:55:00.593Z,17.03
2023-08-28T16:57:30.170Z,17.00
2023-08-28T16:59:58.236Z,16.98
2023-08-28T17:02:26.290Z,16.93
2023-08-28T17:04:54.360Z,16.86
2023-08-28T17:07:22.348Z,16.83
2023-08-28T17:09:50.328Z,16.80
2023-08-28T17:12:19.154Z,16.73
2023-08-28T17:14:48.805Z,16.62
2023-08-28T17:17:16.956Z,16.61
2023-08-28T17:19:47.794Z,16.52
2023-08-28T17:22:15.926Z,16.44
2023-08-28T17:24:44.004Z,16.37
2023-08-28T17:27:12.061Z,16.28
2023-08-28T17:29:40.110Z,16.17
2023-08-28T17:32:09.668Z,16.11
2023-08-28T17:34:38.398Z,16.09
2023-08-28T17:37:06.692Z,16.06
2023-08-28T17:39:36.465Z,16.06
2023-08-28T17:42:04.697Z,16.06
2023-08-28T17:44:33.095Z,16.04
2023-08-28T17:47:01.309Z,15.96
2023-08-28T17:49:30.931Z,15.85
2023-08-28T17:51:59.735Z,15.86
2023-08-28T17:54:27.746Z,15.79
2023-08-28T17:56:55.959Z,15.71
2023-08-28T17:59:26.741Z,15.75
2023-08-28T18:01:54.729Z,15.66
2023-08-28T18:04:23.304Z,15.64
2023-08-28T18:06:54.556Z,15.60
2023-08-28T18:09:25.543Z,15.56
2023-08-28T18:11:53.559Z,15.46
2023-08-28T18:14:21.857Z,15.38
2023-08-28T18:16:49.919Z,15.33
2023-08-28T18:19:18.257Z,15.33
2023-08-28T18:21:46.295Z,15.23
2023-08-28T18:24:18.485Z,15.22
2023-08-28T18:26:47.512Z,15.23
2023-08-28T18:29:15.596Z,15.18
2023-08-28T18:31:47.352Z,15.14
2023-08-28T18:34:15.494Z,15.14
2023-08-28T18:36:43.496Z,15.08
2023-08-28T18:39:11.562Z,15.06
2023-08-28T18:41:42.192Z,15.00
2023-08-28T18:44:11.167Z,14.93
2023-08-28T18:46:40.829Z,14.98
2023-08-28T18:49:09.152Z,14.94
2023-08-28T18:51:37.139Z,14.92
2023-08-28T18:54:05.490Z,14.80
2023-08-28T18:56:33.596Z,14.69
2023-08-28T18:59:02.985Z,14.58
2023-08-28T19:01:31.313Z,14.53
2023-08-28T19:03:59.326Z,14.51
2023-08-28T19:06:27.419Z,14.52
2023-08-28T19:08:56.127Z,14.48
2023-08-28T19:11:24.164Z,14.48
2023-08-28T19:13:52.175Z,14.50
2023-08-28T19:16:21.544Z,14.48
2023-08-28T19:18:49.701Z,14.49
2023-08-28T19:21:18.237Z,14.48
2023-08-28T19:23:46.451Z,14.48
2023-08-28T19:26:16.662Z,14.48
2023-08-28T19:28:44.653Z,14.50
2023-08-28T19:31:12.705Z,14.46
2023-08-28T19:33:42.820Z,14.42
2023-08-28T19:36:13.220Z,14.32
2023-08-28T19:38:41.248Z,14.31
2023-08-28T19:41:09.244Z,14.29
2023-08-28T19:43:37.530Z,14.25
2023-08-28T19:46:06.114Z,14.26
2023-08-28T19:48:36.166Z,14.25
2023-08-28T19:51:06.301Z,14.25
2023-08-28T19:53:34.522Z,14.14
2023-08-28T19:56:03.346Z,14.14
2023-08-28T19:58:31.460Z,14.10
2023-08-28T20:00:59.787Z,14.04
2023-08-28T20:03:28.486Z,14.07
2023-08-28T20:06:03.602Z,14.05
2023-08-28T20:08:33.119Z,14.04
2023-08-28T20:11:01.246Z,14.01
2023-08-28T20:13:29.260Z,13.93
2023-08-28T20:15:57.521Z,13.89
2023-08-28T20:18:25.857Z,13.83
2023-08-28T20:20:54.127Z,13.82
2023-08-28T20:23:22.671Z,13.83
2023-08-28T20:25:52.139Z,13.78
2023-08-28T20:28:20.119Z,13.72
2023-08-28T20:30:48.525Z,13.68
2023-08-28T20:33:16.438Z,13.63
2023-08-28T20:35:44.520Z,13.55
2023-08-28T20:38:12.561Z,13.45
2023-08-28T20:40:41.020Z,13.46
2023-08-28T20:43:10.891Z,13.39
2023-08-28T20:45:39.023Z,13.31
2023-08-28T20:48:08.213Z,13.32
2023-08-28T20:50:36.559Z,13.25
2023-08-28T20:53:04.780Z,13.18
2023-08-28T20:55:33.063Z,13.07
2023-08-28T20:58:01.534Z,12.96
2023-08-28T21:00:31.371Z,12.90
2023-08-28T21:02:59.542Z,12.87
2023-08-28T21:05:27.680Z,12.81
2023-08-28T21:07:55.689Z,12.83
2023-08-28T21:10:24.051Z,12.83
2023-08-28T21:12:54.197Z,12.84
2023-08-28T21:15:22.700Z,12.85
2023-08-28T21:17:52.596Z,12.80
2023-08-28T21:20:21.303Z,12.71
2023-08-28T21:22:51.513Z,12.75
2023-08-28T21:25:19.790Z,12.77
2023-08-28T21:27:49.586Z,12.75
2023-08-28T21:30:17.810Z,12.70
2023-08-28T21:32:48.464Z,12.63
2023-08-28T21:35:19.616Z,12.65
2023-08-28T21:37:47.857Z,12.62
2023-08-28T21:40:15.917Z,12.62
2023-08-28T21:42:43.939Z,12.58
2023-08-28T21:45:12.763Z,12.53
2023-08-28T21:47:40.838Z,12.47
2023-08-28T21:50:09.566Z,12.45
2023-08-28T21:52:39.051Z,12.41
2023-08-28T21:55:07.157Z,12.35
2023-08-28T21:57:35.147Z,12.32
2023-08-28T22:00:05.431Z,12.28
2023-08-28T22:02:33.632Z,12.21
2023-08-28T22:05:01.832Z,12.11
2023-08-28T22:07:29.816Z,12.06
2023-08-28T22:09:59.380Z,12.10
2023-08-28T22:12:27.422Z,12.12
2023-08-28T22:15:00.722Z,12.06
2023-08-28T22:17:29.528Z,12.11
2023-08-28T22:19:58.203Z,12.10
2023-08-28T22:22:26.177Z,12.07
2023-08-28T22:24:54.178Z,12.08
2023-08-28T22:27:23.571Z,12.05
2023-08-28T22:29:51.804Z,12.06
2023-08-28T22:32:19.791Z,12.03
2023-08-28T22:34:47.763Z,11.95
2023-08-28T22:37:16.308Z,11.94
2023-08-28T22:39:44.067Z,11.90
2023-08-28T22:42:12.069Z,11.89
2023-08-28T22:44:41.427Z,11.87
2023-08-28T22:47:09.394Z,11.79
2023-08-28T22:49:37.384Z,11.77
2023-08-28T22:52:05.750Z,11.79
2023-08-28T22:54:33.807Z,11.76
2023-08-28T22:57:02.303Z,11.73
2023-08-28T22:59:31.134Z,11.71
2023-08-28T23:02:01.370Z,11.74
2023-08-28T23:04:29.610Z,11.66
2023-08-28T23:06:57.615Z,11.67
2023-08-28T23:09:26.885Z,11.64
2023-08-28T23:11:54.856Z,11.62
2023-08-28T23:14:22.897Z,11.68
2023-08-28T23:16:50.949Z,11.70
2023-08-28T23:19:20.622Z,11.73
2023-08-28T23:21:48.643Z,11.75
2023-08-28T23:24:16.664Z,11.75
2023-08-28T23:26:44.687Z,11.75
2023-08-28T23:29:12.670Z,11.77
2023-08-28T23:31:40.692Z,11.82
2023-08-28T23:34:08.713Z,11.79
2023-08-28T23:36:38.088Z,11.71
2023-08-28T23:39:08.469Z,11.71
2023-08-28T23:41:36.848Z,11.71
2023-08-28T23:44:04.972Z,11.71
2023-08-28T23:46:32.960Z,11.69
2023-08-28T23:49:01.131Z,11.72
2023-08-28T23:51:29.446Z,11.71
2023-08-28T23:53:58.819Z,11.69
2023-08-28T23:56:27.075Z,11.63
2023-08-28T23:58:55.248Z,11.66
